Time;durP1;ratioP1;P1;durP2;ratioP2;P2;SDS_P1;SDS_P2;PMS_P1;PMS_P2;Temp;Humidity;BMP_temperature;BMP_pressure;BME280_temperature;BME280_humidity;BME280_pressure;Samples;Min_cycle;Max_cycle;Signal;HPM_P1;HPM_P2
2023/08/10 00:01:07;;;;;;;4.90;2.67;;;14.00;99.90;;;;;;5036981;28;20725;-75
2023/08/10 00:03:52;;;;;;;2.73;2.10;;;13.80;99.90;;;;;;5040654;28;20453;-75
2023/08/10 00:06:39;;;;;;;3.60;1.97;;;13.80;99.90;;;;;;5037870;28;20492;-75
2023/08/10 00:09:26;;;;;;;3.13;1.80;;;13.80;99.90;;;;;;5032880;28;20470;-77
2023/08/10 00:12:11;;;;;;;8.30;2.00;;;13.90;99.90;;;;;;5025656;28;20429;-75
2023/08/10 00:14:57;;;;;;;7.73;2.60;;;13.80;99.90;;;;;;5038461;28;20456;-75
2023/08/10 00:17:43;;;;;;;5.00;1.97;;;13.80;99.90;;;;;;5043753;28;20490;-75
2023/08/10 00:20:28;;;;;;;4.47;2.63;;;13.70;99.90;;;;;;5038191;28;20529;-75
2023/08/10 00:23:14;;;;;;;4.90;2.40;;;13.70;99.90;;;;;;5048740;28;21036;-75
2023/08/10 00:26:00;;;;;;;5.20;2.53;;;13.70;99.90;;;;;;5037501;28;20495;-75
2023/08/10 00:28:46;;;;;;;3.60;2.57;;;13.80;99.90;;;;;;5049458;28;20414;-75
2023/08/10 00:31:31;;;;;;;3.17;2.27;;;13.80;99.90;;;;;;5043099;28;20435;-75
2023/08/10 00:34:16;;;;;;;6.93;2.10;;;13.70;99.90;;;;;;5038185;28;22901;-76
2023/08/10 00:37:03;;;;;;;2.93;1.83;;;13.60;99.90;;;;;;5049284;28;20412;-74
2023/08/10 00:39:48;;;;;;;4.43;2.20;;;13.60;99.90;;;;;;5030769;28;20484;-75
2023/08/10 00:42:35;;;;;;;5.70;2.20;;;13.60;99.90;;;;;;5037264;28;20470;-75
2023/08/10 00:45:21;;;;;;;6.50;2.80;;;13.60;99.90;;;;;;5034825;28;20487;-75
2023/08/10 00:48:07;;;;;;;5.63;2.07;;;13.60;99.90;;;;;;5036461;28;20430;-74
2023/08/10 00:50:54;;;;;;;3.73;2.50;;;13.50;99.90;;;;;;5034474;28;20433;-76
2023/08/10 00:53:40;;;;;;;4.93;2.00;;;13.40;99.90;;;;;;5036283;28;20582;-75
2023/08/10 00:56:26;;;;;;;4.33;2.30;;;13.30;99.90;;;;;;5032298;28;20461;-75
2023/08/10 00:59:13;;;;;;;2.90;2.17;;;13.30;99.90;;;;;;5032287;28;20455;-75
2023/08/10 01:01:58;;;;;;;4.67;2.20;;;13.30;99.90;;;;;;5036092;28;20552;-75
2023/08/10 01:04:44;;;;;;;6.70;1.80;;;13.20;99.90;;;;;;5038859;28;20442;-75
2023/08/10 01:07:38;;;;;;;4.20;2.30;;;13.20;99.90;;;;;;5034294;28;20580;-75
2023/08/10 01:10:35;;;;;;;5.10;2.20;;;13.10;99.90;;;;;;5030950;28;21236;-75
2023/08/10 01:13:26;;;;;;;3.50;2.27;;;13.10;99.90;;;;;;5035754;28;20518;-75
2023/08/10 01:16:13;;;;;;;12.33;2.27;;;13.00;99.90;;;;;;5030222;28;20449;-75
2023/08/10 01:19:00;;;;;;;4.33;2.33;;;13.00;99.90;;;;;;5035029;28;20593;-75
2023/08/10 01:21:54;;;;;;;9.13;1.83;;;12.90;99.90;;;;;;5041139;28;20432;-75
2023/08/10 01:24:43;;;;;;;4.30;2.60;;;12.90;99.90;;;;;;5033000;28;20580;-75
2023/08/10 01:27:32;;;;;;;6.60;2.87;;;12.90;99.90;;;;;;5036922;28;20999;-75
2023/08/10 01:30:18;;;;;;;7.37;2.30;;;12.90;99.90;;;;;;5035270;28;20416;-74
2023/08/10 01:33:04;;;;;;;3.57;2.33;;;12.90;99.90;;;;;;5037810;28;20554;-75
2023/08/10 01:35:49;;;;;;;4.50;2.10;;;13.00;99.90;;;;;;5043087;28;20948;-75
2023/08/10 01:38:35;;;;;;;3.70;1.97;;;13.10;99.90;;;;;;5041875;28;20797;-74
2023/08/10 01:41:20;;;;;;;4.70;2.20;;;13.10;99.90;;;;;;5044713;28;20448;-75
2023/08/10 01:44:07;;;;;;;6.03;2.63;;;13.10;99.90;;;;;;5037527;28;20429;-75
2023/08/10 01:46:55;;;;;;;8.10;1.90;;;13.10;99.90;;;;;;5033513;28;21013;-75
2023/08/10 01:49:41;;;;;;;7.83;2.27;;;13.10;99.90;;;;;;5039834;28;20488;-76
2023/08/10 01:52:34;;;;;;;2.50;2.00;;;13.00;99.90;;;;;;5037970;28;20426;-75
2023/08/10 01:55:20;;;;;;;3.00;2.13;;;13.00;99.90;;;;;;5039026;28;20958;-75
2023/08/10 01:58:06;;;;;;;6.40;2.40;;;13.10;99.90;;;;;;5044523;28;20487;-75
2023/08/10 02:00:54;;;;;;;3.97;2.23;;;13.10;99.90;;;;;;5039730;28;20525;-75
2023/08/10 02:03:39;;;;;;;4.00;2.40;;;13.10;99.90;;;;;;5039742;28;20446;-75
2023/08/10 02:06:25;;;;;;;5.83;2.60;;;13.20;99.90;;;;;;5039025;28;20453;-74
2023/08/10 02:09:10;;;;;;;6.60;2.17;;;13.30;99.90;;;;;;5037253;28;20556;-75
2023/08/10 02:11:56;;;;;;;3.17;2.87;;;13.30;99.90;;;;;;5039926;28;20939;-74
2023/08/10 02:14:41;;;;;;;16.73;2.83;;;13.30;99.90;;;;;;5037641;28;20939;-76
2023/08/10 02:17:35;;;;;;;5.07;2.73;;;13.30;99.90;;;;;;5042906;28;20523;-75
2023/08/10 02:20:20;;;;;;;4.23;2.70;;;13.00;99.90;;;;;;5040649;28;20795;-75
2023/08/10 02:23:06;;;;;;;5.83;2.67;;;12.80;99.90;;;;;;5033899;28;21058;-74
2023/08/10 02:25:52;;;;;;;4.20;2.70;;;12.80;99.90;;;;;;5043329;28;20617;-75
2023/08/10 02:28:37;;;;;;;5.23;2.47;;;12.80;99.90;;;;;;5042446;28;20480;-74
2023/08/10 02:31:25;;;;;;;6.40;2.70;;;12.80;99.90;;;;;;5043052;28;20545;-75
2023/08/10 02:34:11;;;;;;;4.17;2.53;;;12.90;99.90;;;;;;5035009;28;20934;-74
2023/08/10 02:36:57;;;;;;;4.07;2.37;;;12.90;99.90;;;;;;5043544;28;20515;-75
2023/08/10 02:39:43;;;;;;;3.57;2.70;;;12.90;99.90;;;;;;5034396;28;20448;-75
2023/08/10 02:42:28;;;;;;;4.00;2.63;;;13.00;99.90;;;;;;5037018;28;20983;-75
2023/08/10 02:45:14;;;;;;;4.40;2.93;;;13.00;99.90;;;;;;5042271;28;20816;-75
2023/08/10 02:47:59;;;;;;;3.30;2.30;;;13.20;99.90;;;;;;5039611;28;20495;-74
2023/08/10 02:50:46;;;;;;;3.30;2.33;;;13.20;99.90;;;;;;5038623;28;20424;-76
2023/08/10 02:53:32;;;;;;;3.23;2.90;;;13.20;99.90;;;;;;5032288;28;20421;-75
2023/08/10 02:56:17;;;;;;;4.57;2.87;;;13.20;99.90;;;;;;5040753;28;20437;-76
2023/08/10 02:59:04;;;;;;;5.03;2.60;;;13.10;99.90;;;;;;5037217;28;20440;-75
2023/08/10 03:01:49;;;;;;;5.47;3.10;;;13.20;99.90;;;;;;5037544;28;20566;-75
2023/08/10 03:04:35;;;;;;;5.37;3.87;;;13.20;99.90;;;;;;5038843;28;20787;-75
2023/08/10 03:07:22;;;;;;;5.53;2.83;;;13.20;99.90;;;;;;5037719;28;20587;-75
2023/08/10 03:10:08;;;;;;;6.17;2.53;;;13.10;99.90;;;;;;5035007;28;20446;-75
2023/08/10 03:12:53;;;;;;;6.43;3.30;;;12.80;99.90;;;;;;5038925;28;20443;-75
2023/08/10 03:15:39;;;;;;;5.07;2.77;;;12.70;99.90;;;;;;5034980;28;21029;-75
2023/08/10 03:18:24;;;;;;;4.53;2.87;;;12.70;99.90;;;;;;5032526;28;20405;-75
2023/08/10 03:21:11;;;;;;;13.40;3.10;;;12.80;99.90;;;;;;5032181;28;20489;-75
2023/08/10 03:23:58;;;;;;;3.97;2.23;;;12.90;99.90;;;;;;5035694;28;21116;-75
2023/08/10 03:26:43;;;;;;;10.17;2.63;;;12.80;99.90;;;;;;5033112;28;20457;-74
2023/08/10 03:29:28;;;;;;;5.00;2.40;;;12.70;99.90;;;;;;5032133;28;20472;-74
2023/08/10 03:32:14;;;;;;;7.63;2.50;;;12.80;99.90;;;;;;5037672;28;20538;-75
2023/08/10 03:35:00;;;;;;;4.40;2.27;;;12.80;99.90;;;;;;5035107;28;20442;-75
2023/08/10 03:37:45;;;;;;;3.93;2.83;;;12.80;99.90;;;;;;5044988;28;20475;-74
2023/08/10 03:40:32;;;;;;;6.87;2.87;;;12.80;99.90;;;;;;5038636;28;20966;-75
2023/08/10 03:43:18;;;;;;;5.00;2.30;;;12.90;99.90;;;;;;5033361;28;20959;-75
2023/08/10 03:46:05;;;;;;;3.43;2.23;;;12.90;99.90;;;;;;5037663;28;20475;-76
2023/08/10 03:48:50;;;;;;;3.60;2.50;;;12.90;99.90;;;;;;5036375;28;20528;-75
2023/08/10 03:51:36;;;;;;;3.47;2.27;;;12.80;99.90;;;;;;5038334;28;20486;-75
2023/08/10 03:54:22;;;;;;;3.60;2.63;;;12.80;99.90;;;;;;5036807;28;20431;-74
2023/08/10 03:57:08;;;;;;;6.07;2.20;;;12.90;99.90;;;;;;5030441;28;20881;-75
2023/08/10 03:59:54;;;;;;;14.20;2.67;;;12.80;99.90;;;;;;5031095;28;20589;-74
2023/08/10 04:02:40;;;;;;;8.50;2.10;;;12.70;99.90;;;;;;5038951;28;20428;-75
2023/08/10 04:05:25;;;;;;;4.87;2.63;;;12.60;99.90;;;;;;5036604;28;20473;-75
2023/08/10 04:08:13;;;;;;;3.40;2.30;;;12.50;99.90;;;;;;5036171;28;20461;-75
2023/08/10 04:10:58;;;;;;;5.03;2.53;;;12.50;99.90;;;;;;5049167;28;20926;-75
2023/08/10 04:13:46;;;;;;;2.57;2.10;;;12.50;99.90;;;;;;5031662;28;20413;-75
2023/08/10 04:16:31;;;;;;;5.27;2.87;;;12.50;99.90;;;;;;5048030;28;20978;-75
2023/08/10 04:19:16;;;;;;;3.67;2.60;;;12.60;99.90;;;;;;5031961;28;20473;-75
2023/08/10 04:22:02;;;;;;;4.53;3.40;;;12.70;99.90;;;;;;5033911;28;20569;-75
2023/08/10 04:24:47;;;;;;;4.90;2.10;;;12.80;99.90;;;;;;5035907;28;20787;-74
2023/08/10 04:27:33;;;;;;;4.27;2.67;;;12.80;99.90;;;;;;5039781;28;20461;-74
2023/08/10 04:30:22;;;;;;;7.90;2.33;;;12.90;99.90;;;;;;5032304;28;20424;-75
2023/08/10 04:33:07;;;;;;;4.50;2.50;;;12.80;99.90;;;;;;5040215;28;20564;-75
2023/08/10 04:35:53;;;;;;;4.63;2.30;;;12.70;99.90;;;;;;5037248;28;20449;-75
2023/08/10 04:38:38;;;;;;;3.30;2.20;;;12.70;99.90;;;;;;5036409;28;20429;-75
2023/08/10 04:41:24;;;;;;;4.17;2.93;;;12.60;99.90;;;;;;5042062;28;20424;-75
2023/08/10 04:44:09;;;;;;;7.27;3.30;;;12.60;99.90;;;;;;5032235;28;20956;-74
2023/08/10 04:46:56;;;;;;;3.93;3.30;;;12.70;99.90;;;;;;5033916;28;20501;-75
2023/08/10 04:49:42;;;;;;;4.23;2.73;;;12.80;99.90;;;;;;5039357;28;20965;-75
2023/08/10 04:52:27;;;;;;;5.97;2.93;;;12.90;99.90;;;;;;5035676;28;20948;-75
2023/08/10 04:55:13;;;;;;;2.73;2.07;;;12.90;99.90;;;;;;5034162;28;20538;-75
2023/08/10 04:57:58;;;;;;;10.10;3.20;;;13.00;99.90;;;;;;5044436;28;20891;-75
2023/08/10 05:00:44;;;;;;;10.90;2.60;;;13.00;99.90;;;;;;5030769;28;20549;-74
2023/08/10 05:03:30;;;;;;;5.40;2.70;;;13.10;99.90;;;;;;5034859;28;20962;-76
2023/08/10 05:06:17;;;;;;;4.53;3.10;;;13.10;99.90;;;;;;5034645;28;20469;-74
2023/08/10 05:09:04;;;;;;;5.00;2.83;;;13.20;99.90;;;;;;5035389;28;20594;-74
2023/08/10 05:11:49;;;;;;;4.27;2.90;;;13.20;99.90;;;;;;5039602;28;20439;-74
2023/08/10 05:14:35;;;;;;;5.63;3.30;;;13.30;99.90;;;;;;5032770;28;20561;-74
2023/08/10 05:17:20;;;;;;;6.23;2.80;;;13.30;99.90;;;;;;5041073;28;20419;-74
2023/08/10 05:20:11;;;;;;;4.40;3.13;;;13.30;99.90;;;;;;5032698;28;20582;-74
2023/08/10 05:22:56;;;;;;;3.93;3.00;;;13.30;99.90;;;;;;5035055;28;20489;-74
2023/08/10 05:25:42;;;;;;;6.10;2.37;;;13.30;99.90;;;;;;5035730;28;20453;-74
2023/08/10 05:28:27;;;;;;;4.07;3.00;;;13.30;99.90;;;;;;5037501;28;20490;-74
2023/08/10 05:31:13;;;;;;;3.87;2.87;;;13.30;99.90;;;;;;5040715;28;20415;-74
2023/08/10 05:33:59;;;;;;;6.03;2.83;;;13.40;99.90;;;;;;5033216;28;21221;-75
2023/08/10 05:36:46;;;;;;;17.13;5.40;;;13.50;99.90;;;;;;5041510;28;20462;-74
2023/08/10 05:39:31;;;;;;;5.40;2.70;;;13.60;99.90;;;;;;5038347;28;20918;-75
2023/08/10 05:42:17;;;;;;;5.43;2.80;;;13.60;99.90;;;;;;5042523;28;20422;-74
2023/08/10 05:45:03;;;;;;;3.20;2.57;;;13.70;99.90;;;;;;5039848;28;20953;-74
2023/08/10 05:47:50;;;;;;;4.63;2.77;;;13.80;99.90;;;;;;5035995;28;20557;-75
2023/08/10 05:50:36;;;;;;;8.00;3.10;;;13.90;99.90;;;;;;5043876;28;20804;-74
2023/08/10 05:53:23;;;;;;;4.80;2.60;;;13.90;99.90;;;;;;5039734;28;20425;-74
2023/08/10 05:56:08;;;;;;;6.07;2.50;;;14.10;99.90;;;;;;5035361;28;20490;-75
2023/08/10 05:58:53;;;;;;;11.67;2.83;;;14.10;99.90;;;;;;5037538;28;20501;-74
2023/08/10 06:01:42;;;;;;;6.43;3.87;;;14.10;99.90;;;;;;5046591;28;20454;-75
2023/08/10 06:04:28;;;;;;;4.40;2.93;;;14.10;99.90;;;;;;5035098;28;20455;-74
2023/08/10 06:07:13;;;;;;;11.47;3.20;;;14.10;99.90;;;;;;5034884;28;20550;-74
2023/08/10 06:10:00;;;;;;;5.17;2.87;;;14.20;99.90;;;;;;5040546;28;20453;-74
2023/08/10 06:12:46;;;;;;;4.20;2.97;;;14.20;99.90;;;;;;5037595;28;21002;-74
2023/08/10 06:15:31;;;;;;;7.03;3.03;;;14.20;99.90;;;;;;5036169;28;20496;-74
2023/08/10 06:18:17;;;;;;;3.93;2.53;;;14.30;99.90;;;;;;5044498;28;20955;-74
2023/08/10 06:21:03;;;;;;;8.60;3.67;;;14.40;99.90;;;;;;5038248;28;20987;-74
2023/08/10 06:23:50;;;;;;;4.33;3.10;;;14.40;99.90;;;;;;5034809;28;20425;-74
2023/08/10 06:26:36;;;;;;;4.87;2.90;;;14.40;99.90;;;;;;5046610;28;20441;-74
2023/08/10 06:29:22;;;;;;;7.30;2.73;;;14.40;99.90;;;;;;5032851;28;20847;-74
2023/08/10 06:32:08;;;;;;;3.70;2.53;;;14.50;99.90;;;;;;5043657;28;20584;-73
2023/08/10 06:34:55;;;;;;;3.33;2.70;;;14.60;99.90;;;;;;5037471;28;21000;-74
2023/08/10 06:37:42;;;;;;;5.57;2.97;;;14.70;99.90;;;;;;5041372;28;20573;-74
2023/08/10 06:40:27;;;;;;;4.27;2.80;;;14.60;99.90;;;;;;5037704;28;20460;-74
2023/08/10 06:43:14;;;;;;;3.37;2.57;;;14.70;99.90;;;;;;5036211;28;20519;-74
2023/08/10 06:45:59;;;;;;;7.87;3.10;;;14.80;99.90;;;;;;5044601;28;20473;-74
2023/08/10 06:48:45;;;;;;;7.03;2.83;;;14.90;99.90;;;;;;5036718;28;20560;-74
2023/08/10 06:51:31;;;;;;;8.23;2.93;;;14.90;99.90;;;;;;5040112;28;20422;-74
2023/08/10 06:54:16;;;;;;;5.97;2.93;;;15.00;99.90;;;;;;5032804;28;20448;-74
2023/08/10 06:57:01;;;;;;;4.77;3.10;;;15.00;99.90;;;;;;5037712;28;20490;-74
2023/08/10 06:59:49;;;;;;;7.10;3.27;;;15.10;99.90;;;;;;5036924;28;20451;-74
2023/08/10 07:02:35;;;;;;;6.57;2.87;;;15.20;99.90;;;;;;5036390;28;20463;-74
2023/08/10 07:05:21;;;;;;;4.30;2.43;;;15.30;99.90;;;;;;5040303;28;20455;-74
2023/08/10 07:08:07;;;;;;;9.17;2.70;;;15.30;99.90;;;;;;5036636;28;20923;-74
2023/08/10 07:10:53;;;;;;;7.93;3.47;;;15.40;99.90;;;;;;5040144;28;20439;-75
2023/08/10 07:13:39;;;;;;;4.73;3.13;;;15.50;99.90;;;;;;5044019;28;20419;-75
2023/08/10 07:16:25;;;;;;;3.93;2.70;;;15.60;99.90;;;;;;5034698;28;20547;-75
2023/08/10 07:19:11;;;;;;;4.97;2.77;;;15.60;99.90;;;;;;5034153;28;20447;-75
2023/08/10 07:21:56;;;;;;;5.90;2.93;;;15.70;99.90;;;;;;5027173;28;20518;-74
2023/08/10 07:24:43;;;;;;;5.30;3.13;;;15.70;99.90;;;;;;5035278;28;20451;-74
2023/08/10 07:27:28;;;;;;;13.70;3.33;;;15.70;99.90;;;;;;5038420;28;20925;-74
2023/08/10 07:30:15;;;;;;;7.73;4.17;;;15.70;99.90;;;;;;5032668;28;20519;-74
2023/08/10 07:33:01;;;;;;;25.00;3.67;;;15.80;99.90;;;;;;5037258;28;20411;-74
2023/08/10 07:35:47;;;;;;;6.00;2.80;;;15.90;99.90;;;;;;5039996;28;20506;-74
2023/08/10 07:38:33;;;;;;;6.87;3.13;;;16.10;99.90;;;;;;5037262;28;20421;-75
2023/08/10 07:41:18;;;;;;;5.40;2.57;;;16.20;99.90;;;;;;5035303;28;20570;-74
2023/08/10 07:44:05;;;;;;;6.20;2.40;;;16.40;99.90;;;;;;5033880;28;20431;-74
2023/08/10 07:46:50;;;;;;;5.13;2.77;;;16.50;99.90;;;;;;5041907;28;20488;-74
2023/08/10 07:49:37;;;;;;;6.13;3.00;;;16.60;99.90;;;;;;5031525;28;21176;-74
2023/08/10 07:52:22;;;;;;;3.53;2.33;;;16.70;99.90;;;;;;5039194;28;20423;-75
2023/08/10 07:55:09;;;;;;;4.83;2.90;;;16.80;99.90;;;;;;5034602;28;20512;-74
2023/08/10 07:57:54;;;;;;;5.20;2.50;;;16.90;99.90;;;;;;5033781;28;21259;-74
2023/08/10 08:00:40;;;;;;;4.40;2.37;;;17.00;99.90;;;;;;5031209;28;20818;-74
2023/08/10 08:03:25;;;;;;;3.60;2.40;;;17.10;99.90;;;;;;5032534;28;20498;-74
2023/08/10 08:06:12;;;;;;;5.33;2.30;;;17.20;99.90;;;;;;5034982;28;20492;-74
2023/08/10 08:08:58;;;;;;;3.50;2.20;;;17.30;99.90;;;;;;5034876;28;20439;-74
2023/08/10 08:11:43;;;;;;;3.60;2.17;;;17.40;99.90;;;;;;5031037;28;20444;-74
2023/08/10 08:14:29;;;;;;;5.60;2.03;;;17.50;99.90;;;;;;5035176;28;20420;-74
2023/08/10 08:17:14;;;;;;;10.10;3.23;;;17.60;99.90;;;;;;5036171;28;20423;-74
2023/08/10 08:20:00;;;;;;;3.60;2.30;;;17.70;99.90;;;;;;5032716;28;20960;-75
2023/08/10 08:22:47;;;;;;;2.77;2.00;;;17.80;99.90;;;;;;5036008;28;20422;-73
2023/08/10 08:25:33;;;;;;;3.50;2.30;;;17.90;99.90;;;;;;5040774;28;21058;-73
2023/08/10 08:28:18;;;;;;;2.70;1.77;;;18.10;99.90;;;;;;5039545;28;20523;-73
2023/08/10 08:31:04;;;;;;;5.00;1.83;;;18.30;99.90;;;;;;5032255;28;20863;-74
2023/08/10 08:33:50;;;;;;;2.73;1.77;;;18.50;99.90;;;;;;5037559;28;20514;-73
2023/08/10 08:36:35;;;;;;;2.33;1.60;;;18.50;99.90;;;;;;5038785;28;21019;-73
2023/08/10 08:39:22;;;;;;;3.00;1.63;;;18.60;99.90;;;;;;5037924;28;20554;-73
2023/08/10 08:42:08;;;;;;;3.97;1.97;;;18.70;99.90;;;;;;5032324;28;20448;-74
2023/08/10 08:44:55;;;;;;;2.50;1.80;;;18.70;99.90;;;;;;5036699;28;20472;-73
2023/08/10 08:47:41;;;;;;;2.60;1.90;;;18.70;99.90;;;;;;5043339;28;20450;-73
2023/08/10 08:50:27;;;;;;;4.70;1.67;;;18.80;99.90;;;;;;5036847;28;21073;-73
2023/08/10 08:53:13;;;;;;;3.07;1.83;;;19.00;99.90;;;;;;5030888;28;20466;-73
2023/08/10 08:56:00;;;;;;;2.33;1.57;;;19.10;99.90;;;;;;5036770;28;20442;-74
2023/08/10 08:58:45;;;;;;;3.60;2.07;;;19.20;99.90;;;;;;5031119;28;20495;-73
2023/08/10 09:01:31;;;;;;;1.87;1.23;;;19.30;99.90;;;;;;5036805;28;20424;-74
2023/08/10 09:04:17;;;;;;;8.10;2.23;;;19.50;99.90;;;;;;5037211;28;20580;-74
2023/08/10 09:07:02;;;;;;;4.80;1.80;;;19.60;99.90;;;;;;5032652;28;20439;-74
2023/08/10 09:09:48;;;;;;;2.67;1.40;;;19.70;99.90;;;;;;5028480;28;20644;-73
2023/08/10 09:12:37;;;;;;;5.40;1.80;;;19.80;99.90;;;;;;5029805;28;20474;-74
2023/08/10 09:15:27;;;;;;;3.83;2.30;;;19.80;99.30;;;;;;5036750;28;20529;-74
2023/08/10 09:18:12;;;;;;;4.90;2.10;;;19.90;99.90;;;;;;5030032;28;20550;-74
2023/08/10 09:21:16;;;;;;;3.43;2.00;;;20.00;99.90;;;;;;5038364;28;20988;-74
2023/08/10 09:24:01;;;;;;;4.23;1.70;;;20.20;99.90;;;;;;5027710;28;20417;-73
2023/08/10 09:26:47;;;;;;;2.83;1.87;;;20.30;99.90;;;;;;5026438;28;20464;-74
2023/08/10 09:29:34;;;;;;;2.83;1.63;;;20.30;99.90;;;;;;5035323;28;20532;-74
2023/08/10 09:32:19;;;;;;;3.67;1.40;;;20.40;99.90;;;;;;5032547;28;20486;-74
2023/08/10 09:35:06;;;;;;;3.60;2.40;;;20.50;99.90;;;;;;5032372;28;20478;-74
2023/08/10 09:38:00;;;;;;;2.90;2.23;;;20.50;99.90;;;;;;5033593;28;20451;-74
2023/08/10 09:40:45;;;;;;;3.57;2.10;;;20.60;99.90;;;;;;5035201;28;20461;-74
2023/08/10 09:43:30;;;;;;;3.37;2.13;;;20.60;90.50;;;;;;5041366;28;20447;-74
2023/08/10 09:46:18;;;;;;;4.47;2.70;;;20.70;98.20;;;;;;5038492;28;20539;-74
2023/08/10 09:49:04;;;;;;;4.70;2.20;;;20.80;98.40;;;;;;5033350;28;20572;-74
2023/08/10 09:51:49;;;;;;;4.00;1.70;;;20.80;89.10;;;;;;5033298;28;20729;-74
2023/08/10 09:54:37;;;;;;;2.60;1.80;;;20.90;94.20;;;;;;5040073;28;20459;-74
2023/08/10 09:57:23;;;;;;;2.40;1.80;;;20.90;86.70;;;;;;5034742;28;20425;-74
2023/08/10 10:00:16;;;;;;;3.10;2.30;;;21.00;91.60;;;;;;5040092;28;20817;-74
2023/08/10 10:03:03;;;;;;;4.40;2.40;;;21.10;91.70;;;;;;5039594;28;20492;-74
2023/08/10 10:05:50;;;;;;;3.63;1.93;;;21.20;92.90;;;;;;5040808;28;21053;-74
2023/08/10 10:08:39;;;;;;;5.37;2.17;;;21.30;93.70;;;;;;5038358;28;21079;-74
2023/08/10 10:11:27;;;;;;;3.80;2.13;;;21.40;88.70;;;;;;5032818;28;20418;-74
2023/08/10 10:14:13;;;;;;;10.30;2.40;;;21.50;91.80;;;;;;5046281;28;20447;-74
2023/08/10 10:16:59;;;;;;;5.10;2.10;;;21.60;84.70;;;;;;5044487;28;20909;-74
2023/08/10 10:19:49;;;;;;;4.23;1.87;;;21.70;90.10;;;;;;5051436;28;20472;-74
2023/08/10 10:22:35;;;;;;;3.83;2.50;;;21.70;87.30;;;;;;5054169;28;20559;-74
2023/08/10 10:25:21;;;;;;;4.60;2.40;;;21.70;73.10;;;;;;5053412;28;20432;-74
2023/08/10 10:28:14;;;;;;;9.33;2.17;;;21.80;72.70;;;;;;5048476;28;20425;-74
2023/08/10 10:31:09;;;;;;;3.33;2.20;;;21.80;76.10;;;;;;5043858;28;20397;-74
2023/08/10 10:33:56;;;;;;;3.70;2.57;;;21.90;83.90;;;;;;5041363;28;20450;-74
2023/08/10 10:36:43;;;;;;;3.80;2.67;;;22.00;82.20;;;;;;5039428;28;20468;-74
2023/08/10 10:39:28;;;;;;;5.73;2.63;;;22.00;64.20;;;;;;5032876;28;20418;-74
2023/08/10 10:42:17;;;;;;;4.90;2.40;;;22.00;65.50;;;;;;5042588;28;20509;-74
2023/08/10 10:45:07;;;;;;;8.40;2.53;;;22.10;79.50;;;;;;5038227;28;20464;-73
2023/08/10 10:47:53;;;;;;;4.00;2.37;;;22.10;66.00;;;;;;5035607;28;20534;-74
2023/08/10 10:50:38;;;;;;;3.50;2.50;;;22.20;71.60;;;;;;5032307;28;20472;-74
2023/08/10 10:53:25;;;;;;;4.57;2.43;;;22.20;58.60;;;;;;5038145;28;20448;-74
2023/08/10 10:56:12;;;;;;;4.10;1.90;;;22.40;59.40;;;;;;5030847;28;20480;-74
2023/08/10 10:58:58;;;;;;;3.40;1.90;;;22.50;64.20;;;;;;5041050;28;20410;-74
2023/08/10 11:01:47;;;;;;;3.53;2.20;;;22.70;53.10;;;;;;5036057;28;20447;-75
2023/08/10 11:04:32;;;;;;;3.47;2.40;;;22.60;56.50;;;;;;5033634;28;20451;-74
2023/08/10 11:07:18;;;;;;;3.17;1.57;;;22.70;45.20;;;;;;5053895;23;20972;-84
2023/08/10 11:10:09;;;;;;;3.57;2.20;;;22.80;60.30;;;;;;5048576;28;20851;-84
2023/08/10 11:12:55;;;;;;;4.60;2.40;;;22.90;55.10;;;;;;5046265;28;20473;-84
2023/08/10 11:15:40;;;;;;;3.30;1.90;;;23.00;47.90;;;;;;5046704;28;20849;-85
2023/08/10 11:18:27;;;;;;;5.50;2.70;;;22.90;33.60;;;;;;5045166;28;20439;-84
2023/08/10 11:21:13;;;;;;;3.00;2.00;;;23.00;51.30;;;;;;5043803;28;20930;-85
2023/08/10 11:23:58;;;;;;;3.80;2.03;;;23.20;48.80;;;;;;5047625;28;20549;-84
2023/08/10 11:26:46;;;;;;;3.33;1.97;;;23.30;38.40;;;;;;5043190;28;20430;-84
2023/08/10 11:29:32;;;;;;;3.00;2.10;;;23.50;37.60;;;;;;5038417;28;20542;-86
2023/08/10 11:32:19;;;;;;;5.17;2.60;;;23.60;33.40;;;;;;5045960;28;20820;-85
2023/08/10 11:35:05;;;;;;;3.63;2.40;;;23.60;41.50;;;;;;5041622;28;20961;-85
2023/08/10 11:37:51;;;;;;;4.60;2.57;;;23.50;30.70;;;;;;5046730;28;20583;-84
2023/08/10 11:40:36;;;;;;;6.40;1.97;;;23.40;29.20;;;;;;5039810;28;20445;-85
2023/08/10 11:43:25;;;;;;;4.70;2.23;;;23.50;35.50;;;;;;5046009;28;20541;-84
2023/08/10 11:46:10;;;;;;;3.53;2.43;;;23.60;39.70;;;;;;5056777;22;21082;-70
2023/08/10 11:48:55;;;;;;;4.60;2.33;;;23.60;29.40;;;;;;5021955;28;20440;-70
2023/08/10 11:51:41;;;;;;;7.90;2.50;;;23.70;31.50;;;;;;5030942;28;20458;-72
2023/08/10 11:54:31;;;;;;;4.13;2.30;;;23.60;29.40;;;;;;5027712;28;20449;-70
2023/08/10 11:57:17;;;;;;;5.30;1.87;;;23.50;29.30;;;;;;5027716;28;20989;-70
2023/08/10 12:00:22;;;;;;;2.90;1.87;;;23.60;34.30;;;;;;5027268;28;21025;-70
2023/08/10 12:03:11;;;;;;;15.27;2.47;;;23.80;31.90;;;;;;5021060;28;20486;-71
2023/08/10 12:06:00;;;;;;;4.40;2.50;;;23.80;28.40;;;;;;5031414;28;20451;-71
2023/08/10 12:08:46;;;;;;;3.37;1.93;;;23.80;28.40;;;;;;5024149;28;20477;-71
2023/08/10 12:11:31;;;;;;;4.20;2.03;;;24.00;29.00;;;;;;5021901;28;20464;-69
2023/08/10 12:14:19;;;;;;;10.83;2.80;;;24.10;29.80;;;;;;5021907;28;20996;-71
2023/08/10 12:17:07;;;;;;;4.90;2.03;;;24.20;27.40;;;;;;5031203;28;20484;-71
2023/08/10 12:19:52;;;;;;;5.10;2.50;;;24.20;26.00;;;;;;5026334;28;20440;-71
2023/08/10 12:22:40;;;;;;;3.67;2.33;;;24.00;25.60;;;;;;5022509;28;20752;-70
2023/08/10 12:25:26;;;;;;;2.77;1.87;;;24.20;26.60;;;;;;5027273;28;20554;-71
2023/08/10 12:28:13;;;;;;;3.03;1.73;;;24.30;24.70;;;;;;5028436;28;20488;-70
2023/08/10 12:30:58;;;;;;;3.57;2.03;;;24.30;26.50;;;;;;5027270;28;20519;-71
2023/08/10 12:33:45;;;;;;;3.17;2.20;;;24.50;27.20;;;;;;5025143;28;20428;-70
2023/08/10 12:36:31;;;;;;;2.70;1.80;;;24.70;30.50;;;;;;5030063;28;20444;-71
2023/08/10 12:39:16;;;;;;;3.40;1.90;;;24.80;28.30;;;;;;5022585;28;20457;-71
2023/08/10 12:42:02;;;;;;;3.10;1.70;;;24.90;28.30;;;;;;5024067;28;20465;-71
2023/08/10 12:44:48;;;;;;;5.47;2.00;;;25.00;25.80;;;;;;5028322;28;20445;-71
2023/08/10 12:47:33;;;;;;;2.70;1.63;;;25.10;28.10;;;;;;5030525;28;20475;-71
2023/08/10 12:50:20;;;;;;;4.60;1.60;;;25.10;25.60;;;;;;5022820;28;20474;-72
2023/08/10 12:53:06;;;;;;;4.43;2.30;;;25.20;26.00;;;;;;5026351;28;20445;-71
2023/08/10 12:55:53;;;;;;;11.40;2.40;;;25.20;23.50;;;;;;5020547;28;20963;-71
2023/08/10 12:58:39;;;;;;;4.27;1.90;;;25.20;23.50;;;;;;5023330;28;20427;-71
2023/08/10 13:01:24;;;;;;;3.83;2.40;;;25.00;23.00;;;;;;5020265;28;20578;-71
2023/08/10 13:04:10;;;;;;;3.27;2.00;;;25.20;22.10;;;;;;5025811;28;20455;-71
2023/08/10 13:06:56;;;;;;;3.47;2.30;;;25.10;22.70;;;;;;5031314;28;20479;-70
2023/08/10 13:09:42;;;;;;;2.57;1.60;;;25.20;22.00;;;;;;5018018;28;20472;-71
2023/08/10 13:12:28;;;;;;;4.33;2.63;;;25.30;21.10;;;;;;5031451;28;20441;-71
2023/08/10 13:15:13;;;;;;;5.60;2.00;;;25.40;21.80;;;;;;5026847;28;20570;-71
2023/08/10 13:17:58;;;;;;;3.00;1.90;;;25.50;20.70;;;;;;5026616;28;20535;-71
2023/08/10 13:20:44;;;;;;;3.80;2.30;;;25.70;20.80;;;;;;5022605;28;20455;-71
2023/08/10 13:23:31;;;;;;;5.20;2.50;;;25.90;19.60;;;;;;5023952;28;20449;-71
2023/08/10 13:26:17;;;;;;;4.00;1.90;;;26.10;19.70;;;;;;5026573;28;20576;-71
2023/08/10 13:29:02;;;;;;;3.90;2.00;;;26.30;19.80;;;;;;5027319;28;20441;-70
2023/08/10 13:31:47;;;;;;;2.73;1.87;;;26.50;20.00;;;;;;5030647;28;20517;-71
2023/08/10 13:34:33;;;;;;;3.87;2.10;;;26.50;20.00;;;;;;5033165;28;20560;-70
2023/08/10 13:37:19;;;;;;;4.53;2.80;;;26.60;18.50;;;;;;5024044;28;20467;-73
2023/08/10 13:40:08;;;;;;;4.07;2.20;;;26.70;18.90;;;;;;5026777;28;20442;-70
2023/08/10 13:42:54;;;;;;;3.77;2.30;;;26.30;16.40;;;;;;5030897;28;20966;-70
2023/08/10 13:45:39;;;;;;;5.00;1.90;;;26.60;18.30;;;;;;5024685;28;20466;-70
2023/08/10 13:48:25;;;;;;;3.37;1.97;;;26.70;17.00;;;;;;5027619;28;20444;-70
2023/08/10 13:51:11;;;;;;;4.30;2.67;;;26.80;17.90;;;;;;5028081;28;20998;-71
2023/08/10 13:53:56;;;;;;;4.10;2.00;;;26.60;15.30;;;;;;5025676;28;20491;-70
2023/08/10 13:57:01;;;;;;;5.70;2.60;;;26.50;17.80;;;;;;5025408;28;20532;-71
2023/08/10 13:59:46;;;;;;;5.97;1.97;;;26.70;17.90;;;;;;5025183;28;20449;-71
2023/08/10 14:02:32;;;;;;;5.63;2.43;;;26.80;16.80;;;;;;5027132;28;21079;-72
2023/08/10 14:05:18;;;;;;;4.87;2.00;;;27.00;17.90;;;;;;5026892;28;20456;-72
2023/08/10 14:08:05;;;;;;;3.60;2.80;;;27.20;18.30;;;;;;5026995;28;20467;-71
2023/08/10 14:10:50;;;;;;;3.53;2.10;;;27.10;16.80;;;;;;5027804;28;21008;-70
2023/08/10 14:13:37;;;;;;;3.60;2.50;;;27.00;15.90;;;;;;5034065;28;20529;-71
2023/08/10 14:16:22;;;;;;;4.23;2.13;;;27.00;17.50;;;;;;5038516;28;20805;-71
2023/08/10 14:19:08;;;;;;;5.27;2.50;;;27.20;18.90;;;;;;5037133;28;20446;-71
2023/08/10 14:21:53;;;;;;;4.00;2.00;;;27.40;18.70;;;;;;5029934;28;20570;-71
2023/08/10 14:24:42;;;;;;;4.03;2.30;;;27.50;17.10;;;;;;5034668;28;20872;-71